This is the latest recevied weather packets stored in our database for station/object WP3OF-3. If no packets are shown the sender has not sent any weather packets the latest 10 day(s).
| Time | Temp. | Humidity | Pressure | Rain* | Wind** | Luminosity | Snow |
|---|---|---|---|---|---|---|---|
| 1777729795 | 27.22° C | 74% | 1020 hPa | 0 mm | - | - | - |
| 1777729492 | 26.67° C | 77% | 1020 hPa | 0 mm | - | - | - |
| 1777729189 | 26.67° C | 75% | 1020 hPa | 0 mm | - | - | - |
| 1777728885 | 26.67° C | 76% | 1020 hPa | 0 mm | - | - | - |
| 1777728583 | 26.67° C | 77% | 1020 hPa | 0 mm | - | - | - |
| 1777728280 | 26.11° C | 79% | 1019.8 hPa | 0 mm | - | - | - |
| 1777727977 | 25° C | 81% | 1019.9 hPa | 0 mm | - | - | - |
| 1777727673 | 24.44° C | 87% | 1019.9 hPa | 0 mm | - | - | - |
| 1777727371 | 23.89° C | 90% | 1019.9 hPa | 0 mm | - | - | - |
| 1777726766 | 22.78° C | 95% | 1019.7 hPa | 0 mm | - | - | - |
| 1777725856 | 21.67° C | 97% | 1019.5 hPa | 0 mm | - | - | - |
| 1777725554 | 22.22° C | 97% | 1019.4 hPa | 0 mm | - | - | - |
| 1777725251 | 21.67° C | 97% | 1019.3 hPa | 0 mm | - | - | - |
| 1777724948 | 21.67° C | 97% | 1019.4 hPa | 0 mm | - | - | - |
| 1777724342 | 21.67° C | 97% | 1019 hPa | 0 mm | - | - | - |
| 1777724039 | 21.67° C | 97% | 1019.2 hPa | 0 mm | - | - | - |
| 1777723737 | 21.67° C | 97% | 1019.2 hPa | 0 mm | - | - | - |
| 1777723433 | 21.11° C | 97% | 1019 hPa | 0 mm | - | - | - |
| 1777723130 | 21.11° C | 97% | 1019.1 hPa | 0 mm | - | - | - |
| 1777722523 | 20.56° C | 97% | 1019 hPa | 0 mm | - | - | - |
| 1777722220 | 20.56° C | 97% | 1018.8 hPa | 0 mm | - | - | - |
| 1777721917 | 20.56° C | 97% | 1018.9 hPa | 0 mm | - | - | - |
| 1777721615 | 20° C | 97% | 1019 hPa | 0 mm | - | - | - |
| 1777721313 | 20° C | 97% | 1018.7 hPa | 0 mm | - | - | - |
| 1777721010 | 20° C | 97% | 1018.8 hPa | 0 mm | - | - | - |
* Rain latest hour (hover to see other rain measurements)
** Current wind speed in m/s (hover to see current wind gust speed)